Time;durP1;ratioP1;P1;durP2;ratioP2;P2;SDS_P1;SDS_P2;PMS_P1;PMS_P2;Temp;Humidity;BMP_temperature;BMP_pressure;BME280_temperature;BME280_humidity;BME280_pressure;Samples;Min_cycle;Max_cycle;Signal;HPM_P1;HPM_P2
2021/03/17 00:00:09;;;;;;;;;4.00;2.25;;;;;11.72;44.71;98190.78;4800779;28;102946;-65
2021/03/17 00:02:38;;;;;;;;;3.50;3.00;;;;;11.74;44.64;98201.41;4802465;29;109160;-66
2021/03/17 00:05:06;;;;;;;;;5.50;5.00;;;;;11.76;44.50;98193.88;4796270;29;104248;-65
2021/03/17 00:07:33;;;;;;;;;4.75;4.25;;;;;11.75;44.77;98197.66;4801145;29;103845;-66
2021/03/17 00:10:00;;;;;;;;;5.50;3.00;;;;;11.73;44.66;98195.16;4795257;29;105936;-66
2021/03/17 00:12:27;;;;;;;;;3.00;3.00;;;;;11.72;44.78;98192.63;4798872;28;104078;-65
2021/03/17 00:14:54;;;;;;;;;4.00;3.50;;;;;11.73;44.32;98197.84;4799649;29;103994;-66
2021/03/17 00:17:20;;;;;;;;;4.00;3.25;;;;;11.73;44.66;98192.44;4797138;29;102834;-66
2021/03/17 00:19:47;;;;;;;;;3.75;2.50;;;;;11.72;44.77;98195.31;4804517;28;103213;-65
2021/03/17 00:22:15;;;;;;;;;4.00;3.00;;;;;11.72;44.74;98196.19;4801558;29;104409;-65
2021/03/17 00:24:41;;;;;;;;;2.75;2.75;;;;;11.72;44.45;98189.91;4802852;29;104915;-63
2021/03/17 00:27:08;;;;;;;;;4.00;3.75;;;;;11.71;44.37;98186.38;4803194;29;102529;-63
2021/03/17 00:29:35;;;;;;;;;5.00;4.25;;;;;11.70;44.72;98181.19;4804449;29;102868;-63
2021/03/17 00:32:01;;;;;;;;;3.50;3.00;;;;;11.70;44.60;98178.47;4798542;29;104052;-64
2021/03/17 00:34:28;;;;;;;;;3.50;3.00;;;;;11.71;44.77;98177.44;4797266;29;104276;-63
2021/03/17 00:36:55;;;;;;;;;4.50;3.00;;;;;11.70;44.70;98182.03;4802670;28;102744;-63
2021/03/17 00:39:21;;;;;;;;;5.00;2.25;;;;;11.70;44.86;98187.44;4803506;29;102812;-63
2021/03/17 00:41:48;;;;;;;;;4.25;4.00;;;;;11.69;44.68;98193.06;4798029;29;104053;-63
2021/03/17 00:44:22;;;;;;;;;4.75;3.50;;;;;11.69;44.48;98174.09;4799518;28;104453;-63
2021/03/17 00:46:49;;;;;;;;;4.75;3.50;;;;;11.70;44.60;98170.34;4802569;29;102827;-63
2021/03/17 00:49:15;;;;;;;;;7.00;4.75;;;;;11.69;44.61;98179.53;4801744;28;104387;-63
2021/03/17 00:51:42;;;;;;;;;2.50;1.25;;;;;11.67;44.68;98177.03;4802179;29;104340;-63
2021/03/17 00:54:09;;;;;;;;;4.25;3.00;;;;;11.67;44.64;98182.44;4806739;28;102655;-64
2021/03/17 00:56:36;;;;;;;;;3.75;3.75;;;;;11.67;44.55;98182.44;4794998;29;103302;-63
2021/03/17 00:59:02;;;;;;;;;2.00;2.00;;;;;11.67;44.71;98179.72;4800302;29;105301;-64
2021/03/17 01:01:29;;;;;;;;;3.50;3.50;;;;;11.68;44.88;98188.69;4797518;29;104000;-64
2021/03/17 01:03:56;;;;;;;;;3.00;2.75;;;;;11.66;44.52;98183.50;4797506;28;102915;-63
2021/03/17 01:06:23;;;;;;;;;3.25;3.00;;;;;11.65;44.54;98189.97;4793130;28;103903;-63
2021/03/17 01:08:49;;;;;;;;;3.50;3.50;;;;;11.65;44.54;98189.97;4790087;29;103272;-63
2021/03/17 01:11:16;;;;;;;;;3.25;2.75;;;;;11.66;44.56;98182.69;4773341;29;104289;-63
2021/03/17 01:13:43;;;;;;;;;2.75;2.75;;;;;11.66;44.64;98185.38;4798760;29;102591;-63
2021/03/17 01:16:10;;;;;;;;;3.00;3.00;;;;;11.64;44.85;98172.88;4797086;29;102679;-64
2021/03/17 01:18:37;;;;;;;;;5.00;4.00;;;;;11.64;44.68;98170.19;4803576;29;102919;-63
2021/03/17 01:21:04;;;;;;;;;4.50;3.00;;;;;11.65;44.82;98173.72;4804459;28;104131;-63
2021/03/17 01:23:31;;;;;;;;;4.00;3.00;;;;;11.63;44.74;98164.97;4797140;28;103853;-63
2021/03/17 01:25:58;;;;;;;;;3.50;3.00;;;;;11.63;44.59;98178.50;4800413;29;103925;-63
2021/03/17 01:28:25;;;;;;;;;3.00;3.00;;;;;11.62;44.48;98177.69;4797121;28;102855;-63
2021/03/17 01:30:55;;;;;;;;;3.50;3.50;;;;;11.63;44.58;98175.81;4798061;29;104264;-63
2021/03/17 01:33:26;;;;;;;;;2.25;2.25;;;;;11.62;44.68;98180.38;4800483;28;103251;-63
2021/03/17 01:35:53;;;;;;;;;3.00;3.00;;;;;11.60;44.47;98179.78;4796038;29;102703;-63
2021/03/17 01:38:20;;;;;;;;;3.25;2.00;;;;;11.60;44.50;98177.09;4794045;28;103962;-63
2021/03/17 01:40:47;;;;;;;;;4.00;3.50;;;;;11.62;44.56;98180.38;4802580;29;104268;-63
2021/03/17 01:43:14;;;;;;;;;5.00;4.00;;;;;11.62;44.74;98182.25;4797029;29;102857;-63
2021/03/17 01:45:41;;;;;;;;;2.75;2.75;;;;;11.61;44.85;98175.22;4800803;29;103091;-63
2021/03/17 01:48:09;;;;;;;;;5.75;3.00;;;;;11.61;44.64;98177.91;4796897;29;102915;-63
2021/03/17 01:50:38;;;;;;;;;3.25;2.75;;;;;11.61;44.75;98172.50;4795015;29;104289;-63
2021/03/17 01:53:13;;;;;;;;;2.75;2.75;;;;;11.59;44.46;98169.16;4794763;29;102672;-63
2021/03/17 01:55:40;;;;;;;;;4.50;3.00;;;;;11.60;44.61;98171.66;4798089;28;102581;-66
2021/03/17 01:58:07;;;;;;;;;2.50;2.50;;;;;11.59;44.40;98174.56;4794146;29;103017;-66
2021/03/17 02:00:34;;;;;;;;;2.00;2.00;;;;;11.59;44.27;98180.81;4791974;29;104392;-66
2021/03/17 02:03:01;;;;;;;;;3.00;3.00;;;;;11.57;44.64;98169.38;4782585;29;102890;-66
2021/03/17 02:05:38;;;;;;;;;3.00;3.00;;;;;11.57;44.37;98177.50;4776762;29;103801;-66
2021/03/17 02:08:06;;;;;;;;;4.00;3.00;;;;;11.58;44.56;98176.44;4796138;28;102721;-66
2021/03/17 02:10:33;;;;;;;;;2.00;2.00;;;;;11.57;44.48;98177.50;4794461;29;104070;-66
2021/03/17 02:13:22;;;;;;;;;4.50;3.25;;;;;11.56;44.66;98169.59;4801365;28;102794;-66
2021/03/17 02:15:57;;;;;;;;;5.00;3.25;;;;;11.57;44.74;98169.38;4797533;29;102725;-66
2021/03/17 02:18:52;;;;;;;;;3.50;2.00;;;;;11.56;44.55;98175.03;4733204;29;102714;-65
2021/03/17 02:21:40;;;;;;;;;4.50;3.25;;;;;11.55;44.63;98171.47;4791597;29;109059;-66
2021/03/17 02:24:30;;;;;;;;;3.00;3.00;;;;;11.57;44.37;98179.41;4739217;28;103796;-66
2021/03/17 02:27:34;;;;;;;;;3.00;3.00;;;;;11.54;44.40;98175.22;4689909;29;102871;-63
2021/03/17 02:30:26;;;;;;;;;3.75;2.50;;;;;11.54;44.69;98182.53;4748376;29;103724;-63
2021/03/17 02:33:30;;;;;;;;;3.50;2.50;;;;;11.53;44.68;98176.28;4798211;28;107902;-63
2021/03/17 02:36:05;;;;;;;;;1.50;1.50;;;;;11.52;44.47;98177.34;4740871;29;102950;-63
2021/03/17 02:38:32;;;;;;;;;3.75;2.00;;;;;11.53;44.84;98176.28;4793953;29;102661;-63
2021/03/17 02:40:59;;;;;;;;;4.00;3.00;;;;;11.54;44.82;98166.28;4784388;29;102983;-63
2021/03/17 02:43:31;;;;;;;;;3.00;3.00;;;;;11.52;44.39;98177.34;4792877;29;104246;-63
2021/03/17 02:46:04;;;;;;;;;2.25;2.00;;;;;11.53;45.09;98175.44;4795146;29;102742;-63
2021/03/17 02:48:43;;;;;;;;;4.75;3.75;;;;;11.53;44.74;98175.44;4791176;29;103299;-63
2021/03/17 02:51:38;;;;;;;;;2.75;2.75;;;;;11.50;44.76;98174.00;4782627;29;102793;-63
2021/03/17 02:54:06;;;;;;;;;3.25;3.00;;;;;11.52;44.46;98174.63;4713420;29;109443;-63
2021/03/17 02:56:34;;;;;;;;;2.75;2.75;;;;;11.51;44.94;98172.97;4799586;28;102894;-63
2021/03/17 02:59:01;;;;;;;;;2.50;2.00;;;;;11.52;44.65;98168.38;4794025;29;102973;-63
2021/03/17 03:01:28;;;;;;;;;2.50;2.25;;;;;11.51;44.40;98167.56;4795136;28;102920;-64
2021/03/17 03:03:56;;;;;;;;;3.50;2.00;;;;;11.50;44.51;98174.00;4810489;28;106072;-63
2021/03/17 03:06:23;;;;;;;;;2.25;2.25;;;;;11.51;44.88;98167.56;4788552;28;102687;-63
2021/03/17 03:08:50;;;;;;;;;3.00;2.00;;;;;11.51;44.42;98164.84;4793416;29;102918;-63
2021/03/17 03:11:16;;;;;;;;;5.00;2.00;;;;;11.50;44.56;98160.47;4792159;28;102743;-63
2021/03/17 03:13:44;;;;;;;;;2.75;2.75;;;;;11.50;44.69;98160.47;4801444;28;104157;-63
2021/03/17 03:16:14;;;;;;;;;3.25;3.25;;;;;11.50;44.58;98165.88;4798900;28;103931;-63
2021/03/17 03:18:43;;;;;;;;;2.25;2.00;;;;;11.48;44.25;98161.75;4787038;29;102998;-63
2021/03/17 03:21:10;;;;;;;;;3.75;2.25;;;;;11.47;44.83;98160.91;4795046;29;102817;-63
2021/03/17 03:23:37;;;;;;;;;6.25;3.75;;;;;11.48;44.35;98161.75;4775917;28;104258;-63
2021/03/17 03:26:03;;;;;;;;;3.00;2.00;;;;;11.48;44.73;98165.25;4794874;28;102871;-63
2021/03/17 03:28:30;;;;;;;;;3.00;3.00;;;;;11.48;44.66;98165.25;4794972;28;103139;-63
2021/03/17 03:30:57;;;;;;;;;2.00;2.00;;;;;11.48;44.43;98167.16;4778534;29;102921;-63
2021/03/17 03:33:24;;;;;;;;;2.25;2.00;;;;;11.47;44.34;98166.34;4794661;28;104221;-63
2021/03/17 03:35:51;;;;;;;;;3.00;2.00;;;;;11.47;44.68;98174.44;4798015;28;104047;-63
2021/03/17 03:38:18;;;;;;;;;3.50;3.00;;;;;11.48;44.37;98170.69;4791023;28;102744;-63
2021/03/17 03:40:45;;;;;;;;;2.00;2.00;;;;;11.48;44.56;98167.97;4794374;29;103999;-63
2021/03/17 03:43:13;;;;;;;;;3.00;3.00;;;;;11.47;44.38;98171.75;4786898;28;104302;-63
2021/03/17 03:45:40;;;;;;;;;4.50;2.75;;;;;11.48;44.46;98178.00;4790328;28;102673;-64
2021/03/17 03:48:07;;;;;;;;;2.00;2.00;;;;;11.47;44.44;98181.75;4790161;29;102676;-63
2021/03/17 03:50:36;;;;;;;;;1.50;1.25;;;;;11.47;44.60;98177.16;4795875;29;102608;-63
2021/03/17 03:53:09;;;;;;;;;3.00;2.00;;;;;11.46;44.45;98178.19;4785228;28;104424;-63
2021/03/17 03:56:02;;;;;;;;;2.50;2.50;;;;;11.45;44.51;98184.66;4791195;29;104173;-63
2021/03/17 03:58:31;;;;;;;;;2.25;2.00;;;;;11.45;44.39;98195.50;4784000;29;103987;-63
2021/03/17 04:01:29;;;;;;;;;1.00;1.00;;;;;11.45;44.44;98195.50;4797446;28;102733;-63
2021/03/17 04:04:01;;;;;;;;;2.25;2.25;;;;;11.45;44.67;98187.38;4777434;28;109918;-63
2021/03/17 04:06:29;;;;;;;;;3.25;2.25;;;;;11.45;44.59;98187.38;4809012;28;102817;-63
2021/03/17 04:08:56;;;;;;;;;2.00;2.00;;;;;11.45;44.50;98186.53;4779807;28;103979;-63
2021/03/17 04:11:23;;;;;;;;;3.75;3.00;;;;;11.44;44.56;98183.00;4792322;29;102857;-63
2021/03/17 04:13:50;;;;;;;;;3.50;3.50;;;;;11.46;44.64;98188.19;4799841;29;112597;-63
2021/03/17 04:16:17;;;;;;;;;3.00;2.75;;;;;11.45;44.52;98189.25;4779888;28;102797;-63
2021/03/17 04:18:45;;;;;;;;;2.50;2.00;;;;;11.44;44.62;98188.41;4794249;29;103004;-63
2021/03/17 04:21:20;;;;;;;;;1.00;1.00;;;;;11.45;44.42;98186.53;4793325;29;102576;-63
2021/03/17 04:23:47;;;;;;;;;1.25;1.25;;;;;11.44;44.28;98188.41;4789436;28;104478;-63
2021/03/17 04:26:14;;;;;;;;;1.25;1.25;;;;;11.44;44.43;98191.09;4811174;28;102710;-66
2021/03/17 04:28:41;;;;;;;;;2.75;2.00;;;;;11.46;44.37;98183.63;4782232;29;103059;-66
2021/03/17 04:31:08;;;;;;;;;2.00;2.00;;;;;11.46;44.49;98183.63;4790375;29;102944;-66
2021/03/17 04:33:35;;;;;;;;;2.75;2.00;;;;;11.47;44.74;98190.69;4776746;29;104258;-66
2021/03/17 04:36:02;;;;;;;;;3.25;3.00;;;;;11.47;44.30;98188.00;4780823;29;102656;-66
2021/03/17 04:38:29;;;;;;;;;3.50;2.00;;;;;11.49;44.59;98187.75;4794444;29;102832;-65
2021/03/17 04:40:56;;;;;;;;;3.75;2.75;;;;;11.49;44.45;98187.75;4794749;29;102607;-65
2021/03/17 04:43:22;;;;;;;;;2.25;1.75;;;;;11.48;44.47;98186.91;4782837;29;104569;-66
2021/03/17 04:45:49;;;;;;;;;2.00;1.00;;;;;11.50;44.48;98202.97;4797429;28;104059;-66
2021/03/17 04:48:17;;;;;;;;;2.00;1.50;;;;;11.50;44.53;98198.38;4792811;28;102820;-66
2021/03/17 04:50:45;;;;;;;;;2.00;2.00;;;;;11.50;44.58;98190.25;4795505;29;102736;-66
2021/03/17 04:53:11;;;;;;;;;3.25;2.00;;;;;11.50;44.35;98187.56;4790479;29;103658;-66
2021/03/17 04:55:38;;;;;;;;;2.00;2.00;;;;;11.51;44.28;98199.22;4804234;28;104398;-63
2021/03/17 04:58:08;;;;;;;;;5.00;3.00;;;;;11.51;44.53;98200.03;4798399;28;102813;-63
2021/03/17 05:00:35;;;;;;;;;2.75;2.00;;;;;11.50;44.31;98194.84;4796837;29;103332;-63
2021/03/17 05:03:03;;;;;;;;;4.00;2.75;;;;;11.50;44.53;98198.38;4800426;29;104463;-63
2021/03/17 05:05:30;;;;;;;;;3.00;2.25;;;;;11.50;44.39;98198.38;4794863;29;102824;-63
2021/03/17 05:07:57;;;;;;;;;2.75;2.00;;;;;11.51;44.73;98200.03;4797380;28;103950;-63
2021/03/17 05:10:25;;;;;;;;;2.00;2.00;;;;;11.50;44.06;98205.66;4797156;29;103973;-63
2021/03/17 05:12:52;;;;;;;;;2.50;2.50;;;;;11.50;44.66;98198.38;4795631;29;111559;-63
2021/03/17 05:15:19;;;;;;;;;2.00;2.00;;;;;11.50;44.36;98208.38;4792352;29;104286;-63
2021/03/17 05:17:48;;;;;;;;;2.00;2.00;;;;;11.51;44.37;98210.88;4801783;28;102699;-63
2021/03/17 05:20:17;;;;;;;;;2.25;2.00;;;;;11.51;44.45;98210.88;4808295;28;102918;-63
2021/03/17 05:22:44;;;;;;;;;1.00;1.00;;;;;11.51;44.27;98210.03;4796941;28;104514;-64
2021/03/17 05:25:12;;;;;;;;;2.00;2.00;;;;;11.51;44.14;98210.03;4792896;28;103721;-63
2021/03/17 05:27:41;;;;;;;;;3.75;2.50;;;;;11.50;44.28;98208.38;4796791;28;102863;-63
2021/03/17 05:30:12;;;;;;;;;4.75;4.00;;;;;11.50;44.79;98217.34;4788404;29;102876;-63
2021/03/17 05:32:40;;;;;;;;;2.00;2.00;;;;;11.50;44.45;98220.03;4796617;28;104130;-63
2021/03/17 05:35:10;;;;;;;;;2.50;2.50;;;;;11.50;44.25;98219.19;4789577;28;103026;-63
2021/03/17 05:37:37;;;;;;;;;3.00;2.00;;;;;11.51;44.38;98219.00;4800744;28;102726;-63
2021/03/17 05:40:05;;;;;;;;;2.25;2.00;;;;;11.50;44.24;98214.63;4790069;29;103413;-63
2021/03/17 05:42:32;;;;;;;;;3.75;2.25;;;;;11.50;44.35;98222.75;4789947;28;105440;-63
2021/03/17 05:44:59;;;;;;;;;1.00;1.00;;;;;11.50;44.34;98224.63;4793306;28;102662;-63
2021/03/17 05:47:25;;;;;;;;;3.00;2.00;;;;;11.49;44.13;98223.78;4804131;28;103024;-63
2021/03/17 05:49:52;;;;;;;;;3.00;2.00;;;;;11.48;44.45;98232.94;4799022;28;102877;-64
2021/03/17 05:52:19;;;;;;;;;2.00;2.00;;;;;11.50;44.36;98235.44;4795768;29;104164;-63
2021/03/17 05:54:47;;;;;;;;;3.75;3.00;;;;;11.48;44.22;98232.94;4791718;28;105020;-65
2021/03/17 05:57:14;;;;;;;;;2.00;1.00;;;;;11.47;44.19;98242.13;4798489;29;103033;-66
2021/03/17 05:59:40;;;;;;;;;2.50;2.00;;;;;11.48;44.50;98246.47;4800081;28;102830;-66
2021/03/17 06:02:08;;;;;;;;;2.00;2.00;;;;;11.48;44.30;98241.06;4796755;28;104203;-66
2021/03/17 06:04:38;;;;;;;;;2.00;2.00;;;;;11.48;44.30;98249.19;4800681;28;102757;-65
2021/03/17 06:07:09;;;;;;;;;2.75;2.75;;;;;11.47;44.46;98244.84;4796818;28;102956;-65
2021/03/17 06:09:36;;;;;;;;;4.00;3.00;;;;;11.48;44.42;98243.78;4792399;28;104670;-66
2021/03/17 06:12:07;;;;;;;;;1.00;1.00;;;;;11.48;44.23;98245.69;4792332;28;104639;-66
2021/03/17 06:14:34;;;;;;;;;2.00;2.00;;;;;11.48;44.37;98249.19;4786798;29;102947;-66
2021/03/17 06:17:03;;;;;;;;;2.00;2.00;;;;;11.47;44.42;98252.97;4791654;29;105633;-65
2021/03/17 06:19:32;;;;;;;;;3.50;2.00;;;;;11.46;44.42;98250.47;4788770;28;104282;-65
2021/03/17 06:21:59;;;;;;;;;3.00;3.00;;;;;11.46;44.43;98251.31;4786031;29;104060;-66
2021/03/17 06:24:29;;;;;;;;;3.00;2.75;;;;;11.46;44.23;98250.47;4799655;28;102832;-65
2021/03/17 06:26:55;;;;;;;;;3.00;3.00;;;;;11.45;44.35;98255.03;4796462;28;104076;-66
2021/03/17 06:29:22;;;;;;;;;4.25;2.75;;;;;11.45;44.42;98255.03;4803482;28;102840;-66
2021/03/17 06:31:49;;;;;;;;;3.25;3.25;;;;;11.45;44.44;98255.03;4795773;28;104267;-66
2021/03/17 06:34:16;;;;;;;;;3.25;3.00;;;;;11.45;44.50;98259.63;4801370;29;102694;-66
2021/03/17 06:36:47;;;;;;;;;1.75;1.75;;;;;11.45;44.33;98259.63;4790280;28;102702;-66
2021/03/17 06:39:14;;;;;;;;;3.50;2.50;;;;;11.44;44.52;98261.50;4801967;28;102550;-66
2021/03/17 06:41:52;;;;;;;;;1.75;1.75;;;;;11.44;44.24;98266.91;4801100;28;104230;-66
2021/03/17 06:44:25;;;;;;;;;2.00;1.00;;;;;11.43;44.19;98262.56;4796372;28;102784;-66
2021/03/17 06:47:15;;;;;;;;;3.00;3.00;;;;;11.44;44.40;98264.22;4798298;28;102625;-66
2021/03/17 06:49:44;;;;;;;;;3.00;3.00;;;;;11.44;44.27;98268.78;4724513;28;103071;-65
2021/03/17 06:52:32;;;;;;;;;3.75;3.00;;;;;11.44;44.49;98269.63;4796226;28;104003;-66
2021/03/17 06:55:20;;;;;;;;;1.75;1.75;;;;;11.43;44.50;98267.97;4799022;29;102747;-63
2021/03/17 06:57:47;;;;;;;;;2.00;1.00;;;;;11.44;44.24;98280.44;4792767;28;102705;-64
2021/03/17 07:00:21;;;;;;;;;2.75;2.75;;;;;11.43;44.22;98276.09;4801522;28;103392;-63
2021/03/17 07:02:51;;;;;;;;;2.75;2.75;;;;;11.41;44.39;98269.22;4798483;29;104132;-63
2021/03/17 07:05:18;;;;;;;;;2.00;2.00;;;;;11.43;44.44;98276.09;4799019;29;102779;-63
2021/03/17 07:07:49;;;;;;;;;3.00;3.00;;;;;11.44;44.49;98291.28;4803568;29;102907;-63
2021/03/17 07:10:39;;;;;;;;;2.75;2.25;;;;;11.44;44.30;98291.28;4800716;29;102897;-63
2021/03/17 07:13:06;;;;;;;;;2.00;2.00;;;;;11.44;44.34;98279.63;4722027;29;108924;-63
2021/03/17 07:15:33;;;;;;;;;2.00;2.00;;;;;11.44;44.26;98280.44;4802233;28;102686;-63
2021/03/17 07:18:16;;;;;;;;;2.25;2.25;;;;;11.45;44.65;98282.13;4799279;29;102679;-63
2021/03/17 07:20:47;;;;;;;;;3.25;3.00;;;;;11.44;44.28;98280.44;4800135;28;102859;-63
2021/03/17 07:23:36;;;;;;;;;3.00;3.00;;;;;11.45;44.55;98282.13;4799930;29;103990;-63
2021/03/17 07:26:17;;;;;;;;;2.75;2.75;;;;;11.45;44.24;98287.53;4753031;28;103026;-63
2021/03/17 07:28:55;;;;;;;;;3.00;2.00;;;;;11.45;44.37;98275.88;4798004;28;103809;-63
2021/03/17 07:31:33;;;;;;;;;2.00;2.00;;;;;11.44;44.21;98291.28;4803357;28;104252;-63
2021/03/17 07:34:12;;;;;;;;;2.75;2.75;;;;;11.45;44.18;98281.28;4796691;29;109217;-63
2021/03/17 07:36:50;;;;;;;;;2.75;2.75;;;;;11.44;44.38;98285.88;4803852;28;103016;-63
2021/03/17 07:39:30;;;;;;;;;2.00;2.00;;;;;11.45;44.26;98286.69;4804318;28;102690;-63
2021/03/17 07:41:59;;;;;;;;;2.25;2.25;;;;;11.45;44.22;98289.41;4798902;29;102617;-63
2021/03/17 07:44:26;;;;;;;;;2.00;2.00;;;;;11.44;44.29;98285.88;4803977;28;109211;-63
2021/03/17 07:46:57;;;;;;;;;3.00;2.75;;;;;11.45;44.26;98298.38;4805757;28;102768;-63
2021/03/17 07:49:42;;;;;;;;;2.25;2.00;;;;;11.45;44.41;98301.06;4739754;29;102877;-63
2021/03/17 07:52:21;;;;;;;;;3.50;3.00;;;;;11.44;44.26;98295.84;4802631;28;102564;-63
2021/03/17 07:54:52;;;;;;;;;3.25;2.25;;;;;11.45;44.23;98297.53;4799599;29;104371;-65
2021/03/17 07:57:20;;;;;;;;;4.00;3.00;;;;;11.45;44.18;98300.22;4803405;28;102609;-66
2021/03/17 07:59:52;;;;;;;;;2.00;2.00;;;;;11.44;44.47;98293.97;4797204;29;102579;-66
2021/03/17 08:02:18;;;;;;;;;2.50;2.50;;;;;11.45;44.22;98303.78;4795741;29;102927;-66
2021/03/17 08:04:45;;;;;;;;;3.25;3.00;;;;;11.46;44.31;98299.19;4803836;28;105557;-66
2021/03/17 08:07:11;;;;;;;;;3.00;2.50;;;;;11.45;44.17;98306.47;4783616;29;102731;-66
2021/03/17 08:09:39;;;;;;;;;2.00;2.00;;;;;11.45;44.39;98303.78;4798957;28;102923;-65
2021/03/17 08:12:09;;;;;;;;;2.00;2.00;;;;;11.45;44.18;98309.19;4799870;28;102924;-65
2021/03/17 08:14:36;;;;;;;;;5.00;3.50;;;;;11.45;44.11;98302.94;4797062;29;104220;-65
2021/03/17 08:17:03;;;;;;;;;3.00;3.00;;;;;11.45;44.28;98305.66;4799508;29;102947;-66
2021/03/17 08:19:29;;;;;;;;;4.75;2.00;;;;;11.45;44.29;98301.06;4802041;29;102699;-64
2021/03/17 08:22:00;;;;;;;;;4.00;3.00;;;;;11.45;44.25;98306.47;4806010;29;102741;-66
2021/03/17 08:24:33;;;;;;;;;3.00;3.00;;;;;11.46;44.09;98310.84;4804842;29;110183;-66
2021/03/17 08:27:07;;;;;;;;;3.00;2.75;;;;;11.45;44.39;98309.19;4807190;28;107239;-66
2021/03/17 08:29:47;;;;;;;;;2.50;2.00;;;;;11.45;44.08;98317.31;4805202;28;102596;-65
2021/03/17 08:32:16;;;;;;;;;4.50;3.25;;;;;11.46;44.10;98318.97;4803660;28;102745;-66
2021/03/17 08:34:57;;;;;;;;;3.00;3.00;;;;;11.46;44.34;98313.56;4809207;28;104172;-66
2021/03/17 08:37:50;;;;;;;;;4.75;3.00;;;;;11.45;44.31;98316.47;4803772;29;102719;-66
2021/03/17 08:40:28;;;;;;;;;3.75;2.75;;;;;11.46;44.06;98310.84;4750226;28;110281;-65
2021/03/17 08:43:36;;;;;;;;;3.00;2.00;;;;;11.47;44.39;98315.25;4804493;29;104396;-66
2021/03/17 08:46:14;;;;;;;;;3.00;2.00;;;;;11.47;44.32;98322.53;4807266;29;109248;-66
2021/03/17 08:49:06;;;;;;;;;4.75;3.00;;;;;11.47;44.27;98311.69;4801518;29;102648;-65
2021/03/17 08:51:45;;;;;;;;;2.00;2.00;;;;;11.46;44.40;98310.84;4807251;28;102753;-66
2021/03/17 08:54:33;;;;;;;;;3.00;2.00;;;;;11.47;44.10;98317.94;4813167;28;102705;-65
2021/03/17 08:57:07;;;;;;;;;3.00;2.00;;;;;11.46;44.30;98310.03;4803846;29;108707;-66
2021/03/17 08:59:40;;;;;;;;;2.25;2.00;;;;;11.46;44.41;98312.72;4801673;29;104174;-65
2021/03/17 09:02:25;;;;;;;;;3.00;3.00;;;;;11.47;44.21;98317.94;4812321;28;102860;-66
2021/03/17 09:04:55;;;;;;;;;3.00;2.25;;;;;11.48;44.30;98319.59;4804688;28;103118;-66
2021/03/17 09:07:58;;;;;;;;;3.25;2.50;;;;;11.47;44.27;98315.25;4802920;28;104233;-66
2021/03/17 09:10:47;;;;;;;;;3.00;3.00;;;;;11.47;44.16;98312.53;4751028;28;104833;-66
2021/03/17 09:13:16;;;;;;;;;3.00;3.00;;;;;11.47;44.18;98307.13;4742847;29;102747;-66
2021/03/17 09:15:52;;;;;;;;;3.50;2.75;;;;;11.49;44.26;98317.72;4804380;29;103261;-66
2021/03/17 09:18:22;;;;;;;;;3.00;2.25;;;;;11.47;44.18;98312.53;4802818;28;104063;-66
2021/03/17 09:20:57;;;;;;;;;3.00;2.25;;;;;11.48;44.07;98313.38;4801046;29;102936;-66
2021/03/17 09:23:26;;;;;;;;;2.25;2.00;;;;;11.47;44.51;98320.66;4802854;29;102689;-66
2021/03/17 09:25:54;;;;;;;;;3.00;3.00;;;;;11.48;44.11;98321.50;4818502;28;102852;-66
2021/03/17 09:28:27;;;;;;;;;4.25;3.00;;;;;11.47;44.06;98317.94;4803166;28;104260;-66
2021/03/17 09:30:56;;;;;;;;;4.00;2.50;;;;;11.48;44.13;98316.88;4803001;28;102719;-66
2021/03/17 09:33:34;;;;;;;;;3.00;3.00;;;;;11.50;44.28;98327.50;4797146;28;102704;-66
2021/03/17 09:36:05;;;;;;;;;3.00;2.50;;;;;11.49;44.31;98318.53;4801187;28;104210;-66
2021/03/17 09:38:39;;;;;;;;;2.00;1.00;;;;;11.50;44.30;98320.22;4799389;29;109873;-66
2021/03/17 09:41:22;;;;;;;;;3.00;3.00;;;;;11.51;44.14;98318.34;4797232;29;102908;-65
2021/03/17 09:44:05;;;;;;;;;2.00;2.00;;;;;11.51;44.12;98326.47;4803086;28;102721;-66
2021/03/17 09:46:41;;;;;;;;;2.50;2.00;;;;;11.52;44.41;98323.56;4809555;28;102866;-66
2021/03/17 09:49:09;;;;;;;;;1.75;1.75;;;;;11.51;44.22;98330.00;4747271;28;108994;-65
2021/03/17 09:51:37;;;;;;;;;3.75;2.25;;;;;11.53;44.18;98332.47;4807487;28;104229;-65
2021/03/17 09:54:06;;;;;;;;;4.25;3.25;;;;;11.52;44.20;98337.09;4806588;28;102675;-65
2021/03/17 09:56:57;;;;;;;;;3.00;3.00;;;;;11.52;44.08;98328.97;4803323;29;102904;-63
2021/03/17 09:59:25;;;;;;;;;2.00;2.00;;;;;11.54;44.16;98331.44;4797943;29;104336;-63
2021/03/17 10:01:52;;;;;;;;;3.50;3.00;;;;;11.53;44.31;98327.91;4807516;28;102665;-63
2021/03/17 10:04:20;;;;;;;;;3.50;3.00;;;;;11.54;44.09;98334.97;4801229;28;102871;-63
2021/03/17 10:06:47;;;;;;;;;3.25;3.00;;;;;11.55;44.18;98339.38;4801226;28;102873;-63
2021/03/17 10:09:15;;;;;;;;;3.75;2.50;;;;;11.54;44.53;98334.97;4807940;28;104652;-63
2021/03/17 10:11:41;;;;;;;;;4.75;2.50;;;;;11.56;44.13;98327.50;4806187;28;103380;-63
2021/03/17 10:14:15;;;;;;;;;2.50;2.00;;;;;11.56;44.19;98332.91;4811077;28;102905;-64
2021/03/17 10:16:42;;;;;;;;;4.50;3.25;;;;;11.57;44.10;98333.75;4808320;28;102898;-63
2021/03/17 10:19:15;;;;;;;;;3.00;2.00;;;;;11.58;44.78;98324.56;4804729;28;104508;-63
2021/03/17 10:21:47;;;;;;;;;3.00;3.00;;;;;11.58;44.30;98333.50;4809922;28;103189;-63
2021/03/17 10:24:14;;;;;;;;;4.00;4.00;;;;;11.60;44.15;98325.19;4801933;29;102697;-63
2021/03/17 10:26:41;;;;;;;;;1.75;1.25;;;;;11.61;44.01;98329.56;4808159;28;102802;-63
2021/03/17 10:29:08;;;;;;;;;3.00;2.50;;;;;11.62;43.98;98332.03;4805030;29;104465;-63
2021/03/17 10:31:35;;;;;;;;;4.00;2.75;;;;;11.63;43.85;98331.00;4791692;29;102832;-63
2021/03/17 10:37:44;;;;;;;;;2.50;2.00;;;;;11.66;43.81;98320.78;4747184;29;103677;-63
2021/03/17 10:40:13;;;;;;;;;2.75;2.50;;;;;11.67;44.00;98327.84;4822282;28;104289;-63
2021/03/17 10:42:48;;;;;;;;;1.00;1.00;;;;;11.67;44.06;98322.44;4807796;28;102740;-63
2021/03/17 10:45:20;;;;;;;;;3.00;2.00;;;;;11.70;44.29;98322.03;4803068;28;102632;-63
2021/03/17 10:47:47;;;;;;;;;2.00;2.00;;;;;11.72;43.73;98319.91;4810171;28;102846;-64
2021/03/17 10:50:27;;;;;;;;;3.00;2.00;;;;;11.71;43.85;98323.69;4807056;28;104714;-63
2021/03/17 10:52:54;;;;;;;;;3.00;2.00;;;;;11.70;43.95;98328.28;4799461;29;102796;-63
2021/03/17 10:55:27;;;;;;;;;3.00;2.00;;;;;11.72;44.24;98330.75;4809286;28;102839;-66
2021/03/17 10:58:16;;;;;;;;;3.00;2.00;;;;;11.74;43.73;98323.28;4802471;29;102754;-66
2021/03/17 11:00:47;;;;;;;;;3.00;3.00;;;;;11.76;44.21;98319.31;4712265;29;109042;-66
2021/03/17 11:03:26;;;;;;;;;2.25;2.25;;;;;11.76;43.82;98316.59;4804310;29;102974;-66
2021/03/17 11:06:13;;;;;;;;;3.00;3.00;;;;;11.78;43.90;98319.09;4807087;28;102712;-66
2021/03/17 11:08:40;;;;;;;;;3.00;3.00;;;;;11.80;43.43;98319.69;4734153;29;102812;-66
2021/03/17 11:11:08;;;;;;;;;5.00;3.00;;;;;11.81;43.89;98315.94;4803512;28;104159;-66
2021/03/17 11:13:36;;;;;;;;;2.00;2.00;;;;;11.82;43.67;98309.50;4806356;28;102869;-65
2021/03/17 11:16:11;;;;;;;;;3.25;2.00;;;;;11.83;43.66;98332.81;4802774;28;102943;-66
2021/03/17 11:18:48;;;;;;;;;3.00;3.00;;;;;11.84;43.58;98323.66;4708284;29;104224;-66
2021/03/17 11:21:34;;;;;;;;;2.50;2.00;;;;;11.83;43.78;98330.13;4804370;28;104322;-66
2021/03/17 11:24:03;;;;;;;;;3.75;2.00;;;;;11.85;44.13;98325.31;4806697;28;103211;-66
2021/03/17 11:26:39;;;;;;;;;2.25;2.25;;;;;11.89;43.50;98323.81;4804915;28;102785;-63
2021/03/17 11:29:14;;;;;;;;;4.25;3.50;;;;;11.91;43.83;98321.75;4805269;29;102807;-63
2021/03/17 11:31:40;;;;;;;;;2.00;2.00;;;;;11.95;43.56;98320.25;4804869;28;104433;-63
2021/03/17 11:34:09;;;;;;;;;3.00;2.00;;;;;11.95;43.27;98325.66;4805526;28;102751;-63
2021/03/17 11:36:36;;;;;;;;;5.00;3.00;;;;;11.95;43.49;98331.09;4805401;28;102545;-63
2021/03/17 11:39:08;;;;;;;;;4.00;2.50;;;;;11.94;43.28;98329.41;4803674;29;102631;-63
2021/03/17 11:41:35;;;;;;;;;2.00;2.00;;;;;11.95;43.51;98329.22;4796031;28;109133;-62
2021/03/17 11:44:03;;;;;;;;;3.50;3.50;;;;;11.93;43.63;98325.06;4815775;28;102698;-64
2021/03/17 11:46:30;;;;;;;;;3.75;2.75;;;;;11.95;43.43;98329.22;4800816;29;102814;-63